createdAt,value
2018-05-18T00:00:47.249Z,12.73
2018-05-18T00:03:15.239Z,12.60
2018-05-18T00:05:43.180Z,12.69
2018-05-18T00:08:11.146Z,12.76
2018-05-18T00:10:39.077Z,12.64
2018-05-18T00:13:07.068Z,12.46
2018-05-18T00:15:35.016Z,12.58
2018-05-18T00:18:02.924Z,12.71
2018-05-18T00:20:30.854Z,12.77
2018-05-18T00:22:58.767Z,12.65
2018-05-18T00:25:26.703Z,12.70
2018-05-18T00:27:54.623Z,12.62
2018-05-18T00:30:22.567Z,12.66
2018-05-18T00:32:51.405Z,12.80
2018-05-18T00:35:19.332Z,12.69
2018-05-18T00:37:47.250Z,12.84
2018-05-18T00:40:15.174Z,12.94
2018-05-18T00:42:43.112Z,13.05
2018-05-18T00:45:11.141Z,13.07
2018-05-18T00:47:39.051Z,13.23
2018-05-18T00:50:06.984Z,13.23
2018-05-18T00:52:34.892Z,13.31
2018-05-18T00:55:02.845Z,13.15
2018-05-18T00:57:31.649Z,13.23
2018-05-18T00:59:59.571Z,13.23
2018-05-18T01:02:27.513Z,13.30
2018-05-18T01:04:55.433Z,13.25
2018-05-18T01:07:23.366Z,13.22
2018-05-18T01:09:51.292Z,13.18
2018-05-18T01:12:19.225Z,13.24
2018-05-18T01:14:47.146Z,13.24
2018-05-18T01:17:15.093Z,13.18
2018-05-18T01:19:43.014Z,13.26
2018-05-18T01:22:10.953Z,13.41
2018-05-18T01:24:38.848Z,13.24
2018-05-18T01:27:06.776Z,13.18
2018-05-18T01:29:34.693Z,13.08
2018-05-18T01:32:02.640Z,13.17
2018-05-18T01:34:30.609Z,13.18
2018-05-18T01:36:58.864Z,13.18
2018-05-18T01:39:27.198Z,13.07
2018-05-18T01:41:55.114Z,13.21
2018-05-18T01:44:23.055Z,13.22
2018-05-18T01:46:50.982Z,13.30
2018-05-18T01:49:18.916Z,13.32
2018-05-18T01:51:47.533Z,13.31
2018-05-18T01:54:15.465Z,13.23
2018-05-18T01:56:43.379Z,13.39
2018-05-18T01:59:11.348Z,13.32
2018-05-18T02:01:39.284Z,13.32
2018-05-18T02:04:07.210Z,13.11
2018-05-18T02:06:35.132Z,13.18
2018-05-18T02:09:03.065Z,13.25
2018-05-18T02:11:30.988Z,13.22
2018-05-18T02:13:58.915Z,13.30
2018-05-18T02:16:26.841Z,13.32
2018-05-18T02:18:54.772Z,13.37
2018-05-18T02:21:22.688Z,13.34
2018-05-18T02:23:50.656Z,13.24
2018-05-18T02:26:18.727Z,13.37
2018-05-18T02:28:47.461Z,13.35
2018-05-18T02:31:15.381Z,13.26
2018-05-18T02:33:43.304Z,13.21
2018-05-18T02:36:11.225Z,13.11
2018-05-18T02:38:39.519Z,13.20
2018-05-18T02:41:07.424Z,13.09
2018-05-18T02:43:35.361Z,13.12
2018-05-18T02:46:03.288Z,13.07
2018-05-18T02:48:31.895Z,13.06
2018-05-18T02:50:59.879Z,13.02
2018-05-18T02:53:27.805Z,13.02
2018-05-18T02:55:55.752Z,13.04
2018-05-18T02:58:23.709Z,13.10
2018-05-18T03:00:51.662Z,13.09
2018-05-18T03:03:19.608Z,12.95
2018-05-18T03:05:47.551Z,12.96
2018-05-18T03:08:16.379Z,12.95
2018-05-18T03:10:44.287Z,12.89
2018-05-18T03:13:12.283Z,12.82
2018-05-18T03:15:40.212Z,12.88
2018-05-18T03:18:08.131Z,12.80
2018-05-18T03:20:36.104Z,12.82
2018-05-18T03:23:04.068Z,12.74
2018-05-18T03:25:32.005Z,12.85
2018-05-18T03:27:59.932Z,12.71
2018-05-18T03:30:27.888Z,12.81
2018-05-18T03:32:55.793Z,12.89
2018-05-18T03:35:23.720Z,12.85
2018-05-18T03:37:51.649Z,12.89
2018-05-18T03:40:19.581Z,12.87
2018-05-18T03:42:47.525Z,12.77
2018-05-18T03:45:15.447Z,12.70
2018-05-18T03:47:43.376Z,12.67
2018-05-18T03:50:11.287Z,12.69
2018-05-18T03:52:39.234Z,12.73
2018-05-18T03:55:08.084Z,12.69
2018-05-18T03:57:36.019Z,12.70
2018-05-18T04:00:03.936Z,12.78
2018-05-18T04:02:44.125Z,12.74
2018-05-18T04:05:23.804Z,12.86
2018-05-18T04:08:03.623Z,12.77
2018-05-18T04:10:31.658Z,12.88
2018-05-18T04:12:59.573Z,12.97
2018-05-18T04:15:27.491Z,12.93
2018-05-18T04:17:55.429Z,12.92
2018-05-18T04:20:23.366Z,12.99
2018-05-18T04:22:51.288Z,12.97
2018-05-18T04:25:19.241Z,13.00
2018-05-18T04:27:47.162Z,13.00
2018-05-18T04:30:15.124Z,13.20
2018-05-18T04:32:43.031Z,13.21
2018-05-18T04:35:10.969Z,13.22
2018-05-18T04:37:38.883Z,13.15
2018-05-18T04:40:06.849Z,13.34
2018-05-18T04:42:34.770Z,13.36
2018-05-18T04:45:02.697Z,13.35
2018-05-18T04:47:30.618Z,13.24
2018-05-18T04:49:58.552Z,13.22
2018-05-18T04:52:26.475Z,13.30
2018-05-18T04:54:54.424Z,13.33
2018-05-18T04:57:22.317Z,13.78
2018-05-18T04:59:50.254Z,13.71
2018-05-18T05:02:18.177Z,13.60
2018-05-18T05:04:46.090Z,13.65
2018-05-18T05:07:14.009Z,13.60
2018-05-18T05:09:41.943Z,13.85
2018-05-18T05:12:09.853Z,13.85
2018-05-18T05:14:37.791Z,13.97
2018-05-18T05:17:05.731Z,14.19
2018-05-18T05:19:33.672Z,14.22
2018-05-18T05:22:01.628Z,14.33
2018-05-18T05:24:29.560Z,14.21
2018-05-18T05:26:57.531Z,14.30
2018-05-18T05:29:25.444Z,14.47
2018-05-18T05:31:53.363Z,14.43
2018-05-18T05:34:21.283Z,14.40
2018-05-18T05:36:49.211Z,14.59
2018-05-18T05:39:17.170Z,14.64
2018-05-18T05:41:45.078Z,14.51
2018-05-18T05:44:13.005Z,14.26
2018-05-18T05:46:40.924Z,14.36
2018-05-18T05:49:08.879Z,14.39
2018-05-18T05:51:36.791Z,14.23
2018-05-18T05:54:04.784Z,14.34
2018-05-18T05:56:32.671Z,14.45
2018-05-18T05:59:00.628Z,14.45
2018-05-18T06:01:28.525Z,14.57
2018-05-18T06:03:56.461Z,14.67
2018-05-18T06:06:24.498Z,14.72
2018-05-18T06:08:52.616Z,14.75
2018-05-18T06:11:20.540Z,14.82
2018-05-18T06:13:48.452Z,14.68
2018-05-18T06:16:16.405Z,14.70
2018-05-18T06:18:44.421Z,14.83
2018-05-18T06:21:12.352Z,14.79
2018-05-18T06:23:40.869Z,14.73
2018-05-18T06:26:08.796Z,14.88
2018-05-18T06:28:36.707Z,14.98
2018-05-18T06:31:04.655Z,14.88
2018-05-18T06:33:32.583Z,14.93
2018-05-18T06:36:00.525Z,15.12
2018-05-18T06:38:28.447Z,15.14
2018-05-18T06:40:56.391Z,15.30
2018-05-18T06:43:24.311Z,15.31
2018-05-18T06:45:52.247Z,15.58
2018-05-18T06:48:20.183Z,15.59
2018-05-18T06:50:48.185Z,15.39
2018-05-18T06:53:16.095Z,15.46
2018-05-18T06:55:44.038Z,15.63
2018-05-18T06:58:11.989Z,15.37
2018-05-18T07:00:39.912Z,15.52
2018-05-18T07:03:07.839Z,15.56
2018-05-18T07:05:35.756Z,15.55
2018-05-18T07:08:03.680Z,15.84
2018-05-18T07:10:31.694Z,15.83
2018-05-18T07:12:59.539Z,15.86
2018-05-18T07:15:27.463Z,15.68
2018-05-18T07:17:55.379Z,15.82
2018-05-18T07:20:23.348Z,15.69
2018-05-18T07:22:51.276Z,15.73
2018-05-18T07:25:19.200Z,15.68
2018-05-18T07:27:47.151Z,15.70
2018-05-18T07:30:15.059Z,15.87
2018-05-18T07:32:43.013Z,16.20
2018-05-18T07:35:10.929Z,16.45
2018-05-18T07:37:40.129Z,16.37
2018-05-18T07:40:08.031Z,16.14
2018-05-18T07:42:35.975Z,16.10
2018-05-18T07:45:03.916Z,16.33
2018-05-18T07:47:31.838Z,16.40
2018-05-18T07:49:59.777Z,16.37
2018-05-18T07:52:27.718Z,16.47
2018-05-18T07:54:55.703Z,16.46
2018-05-18T07:57:23.660Z,16.20
2018-05-18T07:59:51.596Z,16.36
2018-05-18T08:02:19.514Z,16.43
2018-05-18T08:04:47.436Z,16.51
2018-05-18T08:07:15.362Z,16.36
2018-05-18T08:09:43.317Z,16.52
2018-05-18T08:12:11.246Z,16.91
2018-05-18T08:14:39.169Z,17.23
2018-05-18T08:17:07.110Z,17.07
2018-05-18T08:19:35.043Z,17.24
2018-05-18T08:22:02.952Z,17.31
2018-05-18T08:24:30.902Z,17.59
2018-05-18T08:27:10.581Z,17.55
2018-05-18T08:29:38.550Z,17.54
2018-05-18T08:32:06.440Z,17.46
2018-05-18T08:34:34.364Z,17.39
2018-05-18T08:37:02.283Z,17.30
2018-05-18T08:39:30.215Z,17.19
2018-05-18T08:41:58.133Z,17.43
2018-05-18T08:44:26.264Z,17.55
2018-05-18T08:46:54.097Z,17.33
2018-05-18T08:49:22.031Z,17.30
2018-05-18T08:51:49.957Z,17.08
2018-05-18T08:54:17.882Z,16.92
2018-05-18T08:56:45.793Z,16.96
2018-05-18T08:59:13.746Z,17.18
2018-05-18T09:01:41.694Z,16.95
2018-05-18T09:04:09.623Z,16.86
2018-05-18T09:06:37.567Z,17.02
2018-05-18T09:09:06.161Z,17.03
2018-05-18T09:11:40.005Z,17.30
2018-05-18T09:14:07.925Z,17.25
2018-05-18T09:16:36.906Z,17.18
2018-05-18T09:19:04.841Z,17.08
2018-05-18T09:21:32.754Z,17.05
2018-05-18T09:24:00.706Z,17.10
2018-05-18T09:26:28.751Z,16.99
2018-05-18T09:28:56.616Z,16.96
2018-05-18T09:31:24.531Z,17.08
2018-05-18T09:33:52.466Z,16.88
2018-05-18T09:36:20.929Z,16.86
2018-05-18T09:38:48.869Z,17.28
2018-05-18T09:41:16.818Z,17.49
2018-05-18T09:43:44.734Z,17.19
2018-05-18T09:46:12.653Z,17.23
2018-05-18T09:48:40.623Z,17.16
2018-05-18T09:51:08.560Z,17.25
2018-05-18T09:53:36.510Z,17.40
2018-05-18T09:56:04.461Z,17.56
2018-05-18T09:58:32.384Z,17.59
2018-05-18T10:01:00.302Z,18.19
2018-05-18T10:03:28.217Z,18.74
2018-05-18T10:05:56.559Z,18.94
2018-05-18T10:08:24.467Z,19.25
2018-05-18T10:10:52.411Z,18.81
2018-05-18T10:13:20.320Z,18.74
2018-05-18T10:15:48.244Z,18.93
2018-05-18T10:18:16.161Z,18.42
2018-05-18T10:20:44.162Z,18.34
2018-05-18T10:23:12.063Z,18.26
2018-05-18T10:25:39.998Z,18.33
2018-05-18T10:28:08.218Z,18.10
2018-05-18T10:30:36.132Z,17.80
2018-05-18T10:33:04.070Z,18.37
2018-05-18T10:35:31.992Z,18.34
2018-05-18T10:38:01.111Z,17.82
2018-05-18T10:40:29.718Z,17.85
2018-05-18T10:42:57.677Z,17.72
2018-05-18T10:45:25.616Z,17.76
2018-05-18T10:47:53.557Z,17.64
2018-05-18T10:50:21.493Z,17.40
2018-05-18T10:52:49.419Z,17.54
2018-05-18T10:55:17.342Z,17.43
2018-05-18T10:57:45.263Z,17.31
2018-05-18T11:00:13.181Z,17.34
2018-05-18T11:02:41.098Z,17.44
2018-05-18T11:05:09.019Z,17.52
2018-05-18T11:07:36.953Z,17.70
2018-05-18T11:10:04.883Z,17.93
2018-05-18T11:12:32.792Z,18.02
2018-05-18T11:15:00.713Z,17.82
2018-05-18T11:17:28.640Z,17.74
2018-05-18T11:19:56.660Z,17.78
2018-05-18T11:22:24.526Z,17.79
2018-05-18T11:24:52.424Z,17.98
2018-05-18T11:27:20.349Z,18.07
2018-05-18T11:29:48.395Z,18.59
2018-05-18T11:32:16.300Z,18.66
2018-05-18T11:34:44.220Z,18.59
2018-05-18T11:37:12.180Z,18.52
2018-05-18T11:39:40.135Z,18.51
2018-05-18T11:42:08.046Z,18.63
2018-05-18T11:44:36.043Z,18.34
2018-05-18T11:47:04.008Z,18.34
2018-05-18T11:49:31.912Z,18.27
2018-05-18T11:51:59.935Z,18.07
2018-05-18T11:54:27.846Z,17.94
2018-05-18T11:56:55.788Z,18.17
2018-05-18T11:59:23.743Z,18.26
2018-05-18T12:01:51.672Z,18.40
2018-05-18T12:04:19.600Z,18.18
2018-05-18T12:06:47.529Z,18.39
2018-05-18T12:09:15.477Z,18.48
2018-05-18T12:11:43.400Z,18.74
2018-05-18T12:14:11.378Z,18.66
2018-05-18T12:16:39.325Z,18.37
2018-05-18T12:19:07.263Z,18.53
2018-05-18T12:21:35.203Z,18.44
2018-05-18T12:24:03.141Z,18.59
2018-05-18T12:26:31.016Z,18.67
2018-05-18T12:28:58.950Z,18.71
2018-05-18T12:31:26.874Z,18.80
2018-05-18T12:33:54.802Z,19.02
2018-05-18T12:36:22.724Z,18.72
2018-05-18T12:38:50.789Z,18.30
2018-05-18T12:41:18.732Z,18.27
2018-05-18T12:43:46.682Z,18.35
2018-05-18T12:46:14.627Z,18.23
2018-05-18T12:48:42.521Z,18.06
2018-05-18T12:51:10.505Z,18.08
2018-05-18T12:53:38.403Z,17.97
2018-05-18T12:56:06.323Z,18.14
2018-05-18T12:58:34.248Z,18.29
2018-05-18T13:01:02.215Z,18.34
2018-05-18T13:03:30.149Z,18.49
2018-05-18T13:05:58.042Z,18.50
2018-05-18T13:08:25.969Z,18.55
2018-05-18T13:10:53.887Z,18.51
2018-05-18T13:13:21.810Z,18.47
2018-05-18T13:15:49.806Z,18.33
2018-05-18T13:18:17.663Z,18.50
2018-05-18T13:20:45.592Z,18.47
2018-05-18T13:23:13.495Z,18.47
2018-05-18T13:25:41.419Z,18.59
2018-05-18T13:28:09.557Z,18.44
2018-05-18T13:30:37.545Z,18.58
2018-05-18T13:33:05.510Z,18.57
2018-05-18T13:35:33.422Z,18.64
2018-05-18T13:38:01.372Z,18.43
2018-05-18T13:40:29.458Z,18.33
2018-05-18T13:42:57.366Z,18.24
2018-05-18T13:45:25.467Z,18.35
2018-05-18T13:47:53.383Z,18.49
2018-05-18T13:50:21.395Z,18.28
2018-05-18T13:52:49.306Z,18.22
2018-05-18T13:55:17.219Z,18.17
2018-05-18T13:57:45.250Z,18.14
2018-05-18T14:00:13.158Z,18.20
2018-05-18T14:02:41.136Z,18.15
2018-05-18T14:05:09.011Z,18.38
2018-05-18T14:07:36.957Z,18.35
2018-05-18T14:10:04.933Z,18.48
2018-05-18T14:12:32.940Z,18.53
2018-05-18T14:15:00.869Z,18.47
2018-05-18T14:17:28.788Z,18.33
2018-05-18T14:19:56.703Z,18.30
2018-05-18T14:22:24.631Z,17.79
2018-05-18T14:24:53.346Z,17.83
2018-05-18T14:27:21.257Z,17.64
2018-05-18T14:29:49.213Z,17.62
2018-05-18T14:32:17.132Z,17.61
2018-05-18T14:34:45.061Z,17.74
2018-05-18T14:37:13.092Z,17.69
2018-05-18T14:39:41.013Z,17.56
2018-05-18T14:42:08.948Z,17.60
2018-05-18T14:44:36.863Z,17.52
2018-05-18T14:47:04.776Z,17.66
2018-05-18T14:49:32.707Z,17.90
2018-05-18T14:52:00.627Z,17.99
2018-05-18T14:54:28.557Z,17.98
2018-05-18T14:56:56.478Z,17.99
2018-05-18T14:59:24.396Z,17.74
2018-05-18T15:01:52.308Z,17.58
2018-05-18T15:04:20.248Z,17.59
2018-05-18T15:06:48.189Z,17.69
2018-05-18T15:09:16.143Z,17.53
2018-05-18T15:11:44.142Z,17.60
2018-05-18T15:14:12.086Z,17.78
2018-05-18T15:16:40.048Z,17.43
2018-05-18T15:19:07.954Z,17.49
2018-05-18T15:21:35.890Z,17.67
2018-05-18T15:24:03.820Z,17.76
2018-05-18T15:26:31.834Z,17.78
2018-05-18T15:28:59.757Z,17.64
2018-05-18T15:31:27.701Z,17.43
2018-05-18T15:33:55.669Z,17.40
2018-05-18T15:36:23.662Z,17.39
2018-05-18T15:38:51.573Z,17.24
2018-05-18T15:41:19.508Z,17.35
2018-05-18T15:43:47.437Z,17.32
2018-05-18T15:46:15.331Z,17.22
2018-05-18T15:48:43.259Z,17.25
2018-05-18T15:51:11.173Z,17.18
2018-05-18T15:53:39.111Z,17.35
2018-05-18T15:56:07.047Z,17.47
2018-05-18T15:58:34.968Z,17.49
2018-05-18T16:01:02.897Z,17.52
2018-05-18T16:03:30.963Z,17.49
2018-05-18T16:05:58.883Z,17.48
2018-05-18T16:08:26.819Z,17.52
2018-05-18T16:10:54.827Z,17.48
2018-05-18T16:13:22.745Z,17.51
2018-05-18T16:15:50.701Z,17.59
2018-05-18T16:18:18.671Z,17.49
2018-05-18T16:20:46.618Z,17.58
2018-05-18T16:23:14.580Z,17.66
2018-05-18T16:25:42.496Z,17.65
2018-05-18T16:28:10.439Z,17.91
2018-05-18T16:30:38.397Z,17.67
2018-05-18T16:33:06.303Z,17.48
2018-05-18T16:35:34.212Z,17.34
2018-05-18T16:38:02.155Z,17.39
2018-05-18T16:40:30.114Z,17.46
2018-05-18T16:42:58.041Z,17.52
2018-05-18T16:45:25.980Z,17.51
2018-05-18T16:47:53.893Z,17.30
2018-05-18T16:50:21.821Z,17.37
2018-05-18T16:52:49.792Z,17.32
2018-05-18T16:55:17.680Z,17.25
2018-05-18T16:57:45.619Z,17.33
2018-05-18T17:00:13.502Z,17.21
2018-05-18T17:02:42.003Z,17.11
2018-05-18T17:05:09.974Z,17.24
2018-05-18T17:07:37.908Z,17.39
2018-05-18T17:10:05.914Z,17.29
2018-05-18T17:12:33.964Z,17.11
2018-05-18T17:15:01.759Z,17.17
2018-05-18T17:17:29.677Z,17.29
2018-05-18T17:19:57.590Z,17.37
2018-05-18T17:22:25.508Z,17.28
2018-05-18T17:24:53.437Z,17.28
2018-05-18T17:27:21.350Z,17.33
2018-05-18T17:29:49.260Z,17.20
2018-05-18T17:32:17.191Z,17.13
2018-05-18T17:34:45.123Z,17.08
2018-05-18T17:37:13.073Z,17.29
2018-05-18T17:39:40.972Z,17.23
2018-05-18T17:42:08.953Z,17.21
2018-05-18T17:44:36.827Z,17.23
2018-05-18T17:47:05.026Z,17.18
2018-05-18T17:49:32.919Z,17.05
2018-05-18T17:52:00.855Z,16.98
2018-05-18T17:54:28.769Z,16.94
2018-05-18T17:56:56.793Z,16.96
2018-05-18T17:59:24.684Z,16.95
2018-05-18T18:01:52.618Z,16.90
2018-05-18T18:04:20.529Z,17.05
2018-05-18T18:06:48.441Z,16.90
2018-05-18T18:09:16.385Z,17.01
2018-05-18T18:11:44.305Z,16.82
2018-05-18T18:14:12.273Z,16.85
2018-05-18T18:16:40.124Z,16.96
2018-05-18T18:19:08.096Z,16.98
2018-05-18T18:21:36.017Z,16.80
2018-05-18T18:24:03.931Z,16.78
2018-05-18T18:26:31.854Z,16.79
2018-05-18T18:28:59.781Z,16.76
2018-05-18T18:31:27.675Z,16.66
2018-05-18T18:33:55.613Z,16.60
2018-05-18T18:36:23.548Z,16.60
2018-05-18T18:38:52.235Z,16.76
2018-05-18T18:41:20.128Z,16.90
2018-05-18T18:43:48.040Z,16.81
2018-05-18T18:46:15.972Z,16.88
2018-05-18T18:48:43.893Z,17.03
2018-05-18T18:51:11.811Z,17.01
2018-05-18T18:53:39.791Z,17.00
2018-05-18T18:56:07.717Z,16.77
2018-05-18T18:58:35.677Z,16.75
2018-05-18T19:01:03.638Z,16.76
2018-05-18T19:03:31.534Z,16.64
2018-05-18T19:05:59.444Z,16.79
2018-05-18T19:08:27.993Z,16.44
2018-05-18T19:10:55.933Z,16.33
2018-05-18T19:13:24.859Z,16.42
2018-05-18T19:15:52.794Z,16.43
2018-05-18T19:18:20.776Z,16.35
2018-05-18T19:20:48.697Z,16.26
2018-05-18T19:23:17.471Z,16.11
2018-05-18T19:25:45.569Z,16.07
2018-05-18T19:28:13.548Z,15.91
2018-05-18T19:30:41.530Z,15.96
2018-05-18T19:33:09.491Z,16.04
2018-05-18T19:35:37.483Z,16.04
2018-05-18T19:38:05.396Z,15.96
2018-05-18T19:40:33.319Z,15.95
2018-05-18T19:43:01.239Z,15.88
2018-05-18T19:45:29.172Z,15.76
2018-05-18T19:47:57.131Z,15.72
2018-05-18T19:50:25.071Z,15.84
2018-05-18T19:52:52.971Z,15.74
2018-05-18T19:55:20.915Z,15.92
2018-05-18T19:57:48.820Z,15.81
2018-05-18T20:00:16.748Z,15.81
2018-05-18T20:02:44.668Z,15.73
2018-05-18T20:05:12.590Z,15.70
2018-05-18T20:07:40.504Z,15.73
2018-05-18T20:10:08.424Z,15.73
2018-05-18T20:12:36.447Z,15.66
2018-05-18T20:15:04.344Z,15.57
2018-05-18T20:17:32.265Z,15.63
2018-05-18T20:20:00.175Z,15.71
2018-05-18T20:22:28.177Z,15.73
2018-05-18T20:24:56.140Z,15.66
2018-05-18T20:27:24.004Z,15.74
2018-05-18T20:29:51.923Z,15.82
2018-05-18T20:32:19.838Z,15.92
2018-05-18T20:34:47.786Z,15.96
2018-05-18T20:37:15.680Z,15.93
2018-05-18T20:39:43.607Z,16.07
2018-05-18T20:42:11.521Z,16.10
2018-05-18T20:44:39.463Z,15.96
2018-05-18T20:47:07.388Z,16.06
2018-05-18T20:49:35.313Z,15.85
2018-05-18T20:52:03.228Z,15.78
2018-05-18T20:54:31.166Z,15.67
2018-05-18T20:56:59.131Z,15.59
2018-05-18T20:59:27.054Z,15.52
2018-05-18T21:01:54.972Z,15.45
2018-05-18T21:04:22.905Z,15.41
2018-05-18T21:06:50.833Z,15.43
2018-05-18T21:09:18.754Z,15.36
2018-05-18T21:11:46.714Z,15.37
2018-05-18T21:14:14.624Z,15.30
2018-05-18T21:16:42.559Z,15.23
2018-05-18T21:19:10.851Z,15.33
2018-05-18T21:21:39.347Z,15.34
2018-05-18T21:24:07.392Z,15.31
2018-05-18T21:26:35.350Z,15.30
2018-05-18T21:29:03.245Z,15.32
2018-05-18T21:31:31.168Z,15.42
2018-05-18T21:33:59.080Z,15.39
2018-05-18T21:36:27.037Z,15.29
2018-05-18T21:38:54.951Z,15.37
2018-05-18T21:41:22.863Z,15.37
2018-05-18T21:43:50.795Z,15.34
2018-05-18T21:46:18.731Z,15.13
2018-05-18T21:48:47.397Z,15.14
2018-05-18T21:51:15.321Z,15.19
2018-05-18T21:53:43.232Z,15.08
2018-05-18T21:56:11.162Z,15.14
2018-05-18T21:58:39.172Z,15.10
2018-05-18T22:01:07.028Z,15.18
2018-05-18T22:03:34.973Z,15.00
2018-05-18T22:06:02.892Z,14.91
2018-05-18T22:08:31.523Z,14.87
2018-05-18T22:10:59.440Z,14.94
2018-05-18T22:13:27.357Z,14.98
2018-05-18T22:15:55.282Z,14.97
2018-05-18T22:18:23.188Z,15.02
2018-05-18T22:20:51.985Z,15.04
2018-05-18T22:23:19.990Z,15.03
2018-05-18T22:25:48.027Z,14.89
2018-05-18T22:28:15.952Z,14.94
2018-05-18T22:30:43.862Z,14.91
2018-05-18T22:33:11.791Z,14.91
2018-05-18T22:35:39.709Z,14.93
2018-05-18T22:38:07.656Z,15.15
2018-05-18T22:40:35.571Z,15.49
2018-05-18T22:43:03.528Z,15.54
2018-05-18T22:45:31.445Z,15.65
2018-05-18T22:47:59.368Z,15.54
2018-05-18T22:50:27.321Z,15.63
2018-05-18T22:52:55.233Z,15.34
2018-05-18T22:55:23.164Z,15.16
2018-05-18T22:57:51.091Z,15.09
2018-05-18T23:00:26.421Z,15.03
2018-05-18T23:02:54.423Z,14.99
2018-05-18T23:05:22.349Z,14.88
2018-05-18T23:07:50.264Z,14.95
2018-05-18T23:10:18.225Z,14.97
2018-05-18T23:12:46.155Z,14.92
2018-05-18T23:15:14.126Z,14.99
2018-05-18T23:17:42.046Z,15.02
2018-05-18T23:20:09.998Z,15.04
2018-05-18T23:22:37.933Z,15.03
2018-05-18T23:25:05.867Z,15.00
2018-05-18T23:27:33.776Z,14.95
2018-05-18T23:30:01.697Z,15.00
2018-05-18T23:32:29.639Z,15.00
2018-05-18T23:34:57.573Z,15.02
2018-05-18T23:37:25.503Z,15.01
2018-05-18T23:39:53.467Z,15.00
2018-05-18T23:42:21.380Z,14.92
2018-05-18T23:44:50.158Z,14.89
2018-05-18T23:47:18.070Z,14.87
2018-05-18T23:49:46.017Z,14.77
2018-05-18T23:52:14.126Z,14.71
2018-05-18T23:54:42.056Z,14.74
2018-05-18T23:57:10.029Z,14.66
2018-05-18T23:59:37.953Z,14.58
